sensor_id;sensor_type;location;lat;lon;timestamp;pressure;altitude;pressure_sealevel;temperature;humidity
77537;BME280;67783;51.656;16.106;2023-03-03T00:01:33;102308.50;;;3.63;66.98
77537;BME280;67783;51.656;16.106;2023-03-03T00:04:34;102312.13;;;3.58;67.51
77537;BME280;67783;51.656;16.106;2023-03-03T00:07:36;102308.73;;;3.51;66.90
77537;BME280;67783;51.656;16.106;2023-03-03T00:10:39;102300.88;;;3.45;67.36
77537;BME280;67783;51.656;16.106;2023-03-03T00:13:53;102292.92;;;3.45;68.59
77537;BME280;67783;51.656;16.106;2023-03-03T00:16:56;102295.51;;;3.48;67.11
77537;BME280;67783;51.656;16.106;2023-03-03T00:19:58;102299.91;;;3.49;67.46
77537;BME280;67783;51.656;16.106;2023-03-03T00:26:24;102288.56;;;3.43;67.16
77537;BME280;67783;51.656;16.106;2023-03-03T00:29:34;102285.12;;;3.38;67.88
77537;BME280;67783;51.656;16.106;2023-03-03T00:32:43;102281.58;;;3.37;67.06
77537;BME280;67783;51.656;16.106;2023-03-03T00:35:50;102288.70;;;3.35;67.28
77537;BME280;67783;51.656;16.106;2023-03-03T00:38:59;102288.72;;;3.34;68.43
77537;BME280;67783;51.656;16.106;2023-03-03T00:42:12;102275.45;;;3.35;67.13
77537;BME280;67783;51.656;16.106;2023-03-03T00:45:29;102276.30;;;3.36;67.37
77537;BME280;67783;51.656;16.106;2023-03-03T00:48:41;102283.34;;;3.38;67.91
77537;BME280;67783;51.656;16.106;2023-03-03T00:51:43;102279.73;;;3.42;67.07
77537;BME280;67783;51.656;16.106;2023-03-03T00:54:45;102265.60;;;3.42;67.29
77537;BME280;67783;51.656;16.106;2023-03-03T00:57:50;102255.88;;;3.42;68.42
77537;BME280;67783;51.656;16.106;2023-03-03T01:00:53;102250.50;;;3.45;67.15
77537;BME280;67783;51.656;16.106;2023-03-03T01:03:58;102247.84;;;3.47;67.36
77537;BME280;67783;51.656;16.106;2023-03-03T01:07:00;102246.02;;;3.49;66.89
77537;BME280;67783;51.656;16.106;2023-03-03T01:10:03;102238.10;;;3.47;66.98
77537;BME280;67783;51.656;16.106;2023-03-03T01:13:11;102250.50;;;3.45;68.02
77537;BME280;67783;51.656;16.106;2023-03-03T01:16:13;102253.17;;;3.44;66.85
77537;BME280;67783;51.656;16.106;2023-03-03T01:19:15;102248.81;;;3.41;67.46
77537;BME280;67783;51.656;16.106;2023-03-03T01:22:17;102249.70;;;3.42;66.94
77537;BME280;67783;51.656;16.106;2023-03-03T01:25:19;102238.28;;;3.38;67.19
77537;BME280;67783;51.656;16.106;2023-03-03T01:28:32;102239.18;;;3.37;68.27
77537;BME280;67783;51.656;16.106;2023-03-03T01:31:34;102234.73;;;3.39;67.00
77537;BME280;67783;51.656;16.106;2023-03-03T01:34:37;102240.93;;;3.38;67.37
77537;BME280;67783;51.656;16.106;2023-03-03T01:37:39;102229.44;;;3.39;66.94
77537;BME280;67783;51.656;16.106;2023-03-03T01:40:40;102240.88;;;3.40;67.18
77537;BME280;67783;51.656;16.106;2023-03-03T01:43:52;102240.93;;;3.38;68.21
77537;BME280;67783;51.656;16.106;2023-03-03T01:47:02;102235.63;;;3.38;66.92
77537;BME280;67783;51.656;16.106;2023-03-03T01:50:11;102248.07;;;3.35;67.08
77537;BME280;67783;51.656;16.106;2023-03-03T01:53:22;102242.87;;;3.29;68.21
77537;BME280;67783;51.656;16.106;2023-03-03T01:56:24;102235.87;;;3.26;66.91
77537;BME280;67783;51.656;16.106;2023-03-03T01:59:33;102243.91;;;3.20;67.35
77537;BME280;67783;51.656;16.106;2023-03-03T02:02:46;102244.85;;;3.16;68.29
77537;BME280;67783;51.656;16.106;2023-03-03T02:05:49;102242.27;;;3.13;67.06
77537;BME280;67783;51.656;16.106;2023-03-03T02:08:58;102247.64;;;3.08;67.39
77537;BME280;67783;51.656;16.106;2023-03-03T02:12:06;102256.54;;;3.06;67.18
77537;BME280;67783;51.656;16.106;2023-03-03T02:18:21;102260.23;;;2.96;68.02
77537;BME280;67783;51.656;16.106;2023-03-03T02:21:24;102253.22;;;2.93;67.25
77537;BME280;67783;51.656;16.106;2023-03-03T02:24:36;102258.59;;;2.89;67.57
77537;BME280;67783;51.656;16.106;2023-03-03T02:27:40;102239.18;;;2.87;68.86
77537;BME280;67783;51.656;16.106;2023-03-03T02:30:43;102233.86;;;2.90;67.39
77537;BME280;67783;51.656;16.106;2023-03-03T02:33:47;102228.59;;;2.87;67.91
77537;BME280;67783;51.656;16.106;2023-03-03T02:36:50;102235.64;;;2.88;67.38
77537;BME280;67783;51.656;16.106;2023-03-03T02:39:52;102228.59;;;2.87;67.57
77537;BME280;67783;51.656;16.106;2023-03-03T02:43:02;102227.72;;;2.86;68.74
77537;BME280;67783;51.656;16.106;2023-03-03T02:46:06;102223.26;;;2.90;67.38
77537;BME280;67783;51.656;16.106;2023-03-03T02:49:20;102232.10;;;2.89;67.51
77537;BME280;67783;51.656;16.106;2023-03-03T02:52:27;102240.11;;;2.86;68.27
77537;BME280;67783;51.656;16.106;2023-03-03T02:55:29;102231.23;;;2.87;67.26
77537;BME280;67783;51.656;16.106;2023-03-03T02:58:30;102232.18;;;2.84;67.77
77537;BME280;67783;51.656;16.106;2023-03-03T03:01:33;102223.29;;;2.87;67.24
77537;BME280;67783;51.656;16.106;2023-03-03T03:04:38;102229.52;;;2.86;67.38
77537;BME280;67783;51.656;16.106;2023-03-03T03:07:48;102206.59;;;2.83;68.60
77537;BME280;67783;51.656;16.106;2023-03-03T03:10:50;102210.12;;;2.84;67.29
77537;BME280;67783;51.656;16.106;2023-03-03T03:13:52;102216.34;;;2.81;67.81
77537;BME280;67783;51.656;16.106;2023-03-03T03:16:53;102215.47;;;2.81;67.19
77537;BME280;67783;51.656;16.106;2023-03-03T03:19:55;102229.66;;;2.76;67.52
77537;BME280;67783;51.656;16.106;2023-03-03T03:22:57;102235.77;;;2.82;67.25
77537;BME280;67783;51.656;16.106;2023-03-03T03:25:59;102255.15;;;2.82;67.41
77537;BME280;67783;51.656;16.106;2023-03-03T03:29:04;102262.27;;;2.78;68.73
77537;BME280;67783;51.656;16.106;2023-03-03T03:32:07;102265.80;;;2.77;67.40
77537;BME280;67783;51.656;16.106;2023-03-03T03:35:09;102272.05;;;2.73;67.92
77537;BME280;67783;51.656;16.106;2023-03-03T03:38:12;102278.27;;;2.72;67.43
77537;BME280;67783;51.656;16.106;2023-03-03T03:41:15;102271.27;;;2.68;67.66
77537;BME280;67783;51.656;16.106;2023-03-03T03:44:25;102286.41;;;2.59;68.71
77537;BME280;67783;51.656;16.106;2023-03-03T03:47:27;102282.99;;;2.52;67.57
77537;BME280;67783;51.656;16.106;2023-03-03T03:50:29;102290.16;;;2.44;67.95
77537;BME280;67783;51.656;16.106;2023-03-03T03:53:32;102283.16;;;2.40;67.52
77537;BME280;67783;51.656;16.106;2023-03-03T03:56:34;102284.13;;;2.33;67.89
77537;BME280;67783;51.656;16.106;2023-03-03T03:59:48;102286.81;;;2.31;69.01
77537;BME280;67783;51.656;16.106;2023-03-03T04:02:50;102290.30;;;2.33;67.64
77537;BME280;67783;51.656;16.106;2023-03-03T04:05:52;102279.70;;;2.35;68.06
77537;BME280;67783;51.656;16.106;2023-03-03T04:08:56;102274.34;;;2.40;67.62
77537;BME280;67783;51.656;16.106;2023-03-03T04:11:58;102286.66;;;2.41;67.63
77537;BME280;67783;51.656;16.106;2023-03-03T04:15:09;102277.00;;;2.38;68.36
77537;BME280;67783;51.656;16.106;2023-03-03T04:18:11;102288.46;;;2.39;67.45
77537;BME280;67783;51.656;16.106;2023-03-03T04:21:14;102282.30;;;2.38;67.65
77537;BME280;67783;51.656;16.106;2023-03-03T04:24:16;102280.52;;;2.40;67.26
77537;BME280;67783;51.656;16.106;2023-03-03T04:27:19;102284.93;;;2.40;67.44
77537;BME280;67783;51.656;16.106;2023-03-03T04:30:27;102271.73;;;2.37;68.08
77537;BME280;67783;51.656;16.106;2023-03-03T04:33:29;102255.84;;;2.38;67.30
77537;BME280;67783;51.656;16.106;2023-03-03T04:36:31;102236.78;;;2.13;67.54
77537;BME280;67783;51.656;16.106;2023-03-03T04:39:33;102267.30;;;2.37;67.15
77537;BME280;67783;51.656;16.106;2023-03-03T04:42:35;102259.42;;;2.34;67.72
77537;BME280;67783;51.656;16.106;2023-03-03T04:45:37;102252.49;;;2.24;67.15
77537;BME280;67783;51.656;16.106;2023-03-03T04:48:39;102260.30;;;2.35;67.31
77537;BME280;67783;51.656;16.106;2023-03-03T04:51:43;102260.31;;;2.33;68.09
77537;BME280;67783;51.656;16.106;2023-03-03T04:54:45;102263.83;;;2.35;67.26
77537;BME280;67783;51.656;16.106;2023-03-03T04:57:47;102256.77;;;2.34;67.76
77537;BME280;67783;51.656;16.106;2023-03-03T05:00:54;102247.00;;;2.39;67.33
77537;BME280;67783;51.656;16.106;2023-03-03T05:03:56;102234.60;;;2.43;67.35
77537;BME280;67783;51.656;16.106;2023-03-03T05:07:04;102232.85;;;2.42;68.34
77537;BME280;67783;51.656;16.106;2023-03-03T05:10:07;102230.20;;;2.42;67.34
77537;BME280;67783;51.656;16.106;2023-03-03T05:13:09;102229.31;;;2.41;67.74
77537;BME280;67783;51.656;16.106;2023-03-03T05:16:15;102218.72;;;2.43;67.29
77537;BME280;67783;51.656;16.106;2023-03-03T05:19:17;102229.25;;;2.47;67.52
77537;BME280;67783;51.656;16.106;2023-03-03T05:22:25;102236.29;;;2.48;68.23
77537;BME280;67783;51.656;16.106;2023-03-03T05:25:27;102238.02;;;2.49;67.18
77537;BME280;67783;51.656;16.106;2023-03-03T05:28:29;102239.77;;;2.50;67.42
77537;BME280;67783;51.656;16.106;2023-03-03T05:31:31;102230.89;;;2.54;67.08
77537;BME280;67783;51.656;16.106;2023-03-03T05:34:33;102230.88;;;2.56;67.29
77537;BME280;67783;51.656;16.106;2023-03-03T05:37:35;102225.54;;;2.57;67.03
77537;BME280;67783;51.656;16.106;2023-03-03T05:40:38;102226.47;;;2.56;67.25
77537;BME280;67783;51.656;16.106;2023-03-03T05:43:42;102243.23;;;2.55;67.90
77537;BME280;67783;51.656;16.106;2023-03-03T05:46:44;102248.53;;;2.55;67.15
77537;BME280;67783;51.656;16.106;2023-03-03T05:49:46;102259.11;;;2.55;67.64
77537;BME280;67783;51.656;16.106;2023-03-03T05:52:52;102268.74;;;2.61;67.08
77537;BME280;67783;51.656;16.106;2023-03-03T05:55:54;102273.16;;;2.60;67.12
77537;BME280;67783;51.656;16.106;2023-03-03T05:59:03;102285.48;;;2.61;67.83
77537;BME280;67783;51.656;16.106;2023-03-03T06:02:04;102282.80;;;2.64;66.96
77537;BME280;67783;51.656;16.106;2023-03-03T06:05:08;102278.40;;;2.63;67.27
77537;BME280;67783;51.656;16.106;2023-03-03T06:08:10;102285.45;;;2.64;66.85
77537;BME280;67783;51.656;16.106;2023-03-03T06:11:11;102281.94;;;2.62;66.94
77537;BME280;67783;51.656;16.106;2023-03-03T06:14:24;102281.04;;;2.63;67.40
77537;BME280;67783;51.656;16.106;2023-03-03T06:17:25;102270.47;;;2.63;66.83
77537;BME280;67783;51.656;16.106;2023-03-03T06:20:27;102283.70;;;2.63;67.01
77537;BME280;67783;51.656;16.106;2023-03-03T06:23:29;102286.34;;;2.63;66.78
77537;BME280;67783;51.656;16.106;2023-03-03T06:26:31;102285.45;;;2.64;66.91
77537;BME280;67783;51.656;16.106;2023-03-03T06:29:33;102295.10;;;2.68;66.75
77537;BME280;67783;51.656;16.106;2023-03-03T06:32:35;102291.52;;;2.71;66.84
77537;BME280;67783;51.656;16.106;2023-03-03T06:35:40;102287.92;;;2.75;67.41
77537;BME280;67783;51.656;16.106;2023-03-03T06:38:42;102296.75;;;2.75;66.66
77537;BME280;67783;51.656;16.106;2023-03-03T06:41:44;102324.11;;;2.74;66.99
77537;BME280;67783;51.656;16.106;2023-03-03T06:44:46;102323.18;;;2.78;66.58
77537;BME280;67783;51.656;16.106;2023-03-03T06:47:48;102323.16;;;2.80;66.78
77537;BME280;67783;51.656;16.106;2023-03-03T06:51:02;102330.17;;;2.83;67.27
77537;BME280;67783;51.656;16.106;2023-03-03T06:54:14;102323.98;;;2.84;66.59
77537;BME280;67783;51.656;16.106;2023-03-03T06:57:25;102311.69;;;2.79;66.73
77537;BME280;67783;51.656;16.106;2023-03-03T07:00:28;102312.63;;;2.77;67.22
77537;BME280;67783;51.656;16.106;2023-03-03T07:03:34;102313.46;;;2.77;66.63
77537;BME280;67783;51.656;16.106;2023-03-03T07:06:36;102323.18;;;2.78;66.80
77537;BME280;67783;51.656;16.106;2023-03-03T07:09:38;102306.34;;;2.83;66.58
77537;BME280;67783;51.656;16.106;2023-03-03T07:12:40;102319.52;;;2.87;66.69
77537;BME280;67783;51.656;16.106;2023-03-03T07:15:49;102317.73;;;2.89;66.89
77537;BME280;67783;51.656;16.106;2023-03-03T07:18:56;102322.11;;;2.90;66.46
77537;BME280;67783;51.656;16.106;2023-03-03T07:22:12;102332.69;;;2.92;66.50
77537;BME280;67783;51.656;16.106;2023-03-03T07:25:29;102337.05;;;2.94;66.86
77537;BME280;67783;51.656;16.106;2023-03-03T07:28:28;102330.79;;;3.00;66.46
77537;BME280;67783;51.656;16.106;2023-03-03T07:31:39;102320.19;;;3.01;66.38
77537;BME280;67783;51.656;16.106;2023-03-03T07:34:47;102321.02;;;3.03;66.79
77537;BME280;67783;51.656;16.106;2023-03-03T07:37:50;102309.46;;;3.09;66.31
77537;BME280;67783;51.656;16.106;2023-03-03T07:40:54;102327.05;;;3.13;66.37
77537;BME280;67783;51.656;16.106;2023-03-03T07:44:03;102343.77;;;3.16;66.19
77537;BME280;67783;51.656;16.106;2023-03-03T07:50:22;102339.35;;;3.17;66.09
77537;BME280;67783;51.656;16.106;2023-03-03T07:53:30;102341.05;;;3.21;65.96
77537;BME280;67783;51.656;16.106;2023-03-03T07:56:37;102335.75;;;3.21;66.05
77537;BME280;67783;51.656;16.106;2023-03-03T07:59:50;102337.52;;;3.22;66.42
77537;BME280;67783;51.656;16.106;2023-03-03T08:02:57;102340.99;;;3.24;65.99
77537;BME280;67783;51.656;16.106;2023-03-03T08:06:20;102333.94;;;3.23;65.99
77537;BME280;67783;51.656;16.106;2023-03-03T08:09:40;102302.52;;;3.02;66.11
77537;BME280;67783;51.656;16.106;2023-03-03T08:12:41;102319.85;;;3.21;65.92
77537;BME280;67783;51.656;16.106;2023-03-03T08:15:51;102319.85;;;3.21;66.06
77537;BME280;67783;51.656;16.106;2023-03-03T08:18:53;102324.34;;;3.16;66.38
77537;BME280;67783;51.656;16.106;2023-03-03T08:22:01;102315.52;;;3.15;65.94
77537;BME280;67783;51.656;16.106;2023-03-03T08:25:07;102308.45;;;3.16;65.86
77537;BME280;67783;51.656;16.106;2023-03-03T08:28:17;102316.31;;;3.22;66.28
77537;BME280;67783;51.656;16.106;2023-03-03T08:31:19;102312.73;;;3.23;65.77
77537;BME280;67783;51.656;16.106;2023-03-03T08:34:21;102322.44;;;3.25;66.04
77537;BME280;67783;51.656;16.106;2023-03-03T08:37:23;102330.37;;;3.27;65.91
77537;BME280;67783;51.656;16.106;2023-03-03T08:40:25;102337.31;;;3.33;65.96
77537;BME280;67783;51.656;16.106;2023-03-03T08:43:37;102331.88;;;3.40;66.07
77537;BME280;67783;51.656;16.106;2023-03-03T08:46:39;102340.63;;;3.45;65.59
77537;BME280;67783;51.656;16.106;2023-03-03T08:49:41;102335.34;;;3.45;65.61
77537;BME280;67783;51.656;16.106;2023-03-03T08:52:49;102328.19;;;3.50;65.49
77537;BME280;67783;51.656;16.106;2023-03-03T08:55:51;102333.42;;;3.53;65.59
77537;BME280;67783;51.656;16.106;2023-03-03T08:58:58;102343.13;;;3.54;65.46
77537;BME280;67783;51.656;16.106;2023-03-03T09:02:00;102347.49;;;3.57;65.41
77537;BME280;67783;51.656;16.106;2023-03-03T09:05:02;102343.07;;;3.57;65.40
77537;BME280;67783;51.656;16.106;2023-03-03T09:08:05;102347.48;;;3.58;65.25
77537;BME280;67783;51.656;16.106;2023-03-03T09:11:12;102342.24;;;3.55;65.20
77537;BME280;67783;51.656;16.106;2023-03-03T09:14:19;102361.79;;;3.48;65.43
77537;BME280;67783;51.656;16.106;2023-03-03T09:17:30;102373.31;;;3.47;65.24
77537;BME280;67783;51.656;16.106;2023-03-03T09:20:40;102371.61;;;3.43;65.33
77537;BME280;67783;51.656;16.106;2023-03-03T09:23:53;102383.06;;;3.44;65.50
77537;BME280;67783;51.656;16.106;2023-03-03T09:26:57;102382.10;;;3.49;65.29
77537;BME280;67783;51.656;16.106;2023-03-03T09:36:28;102367.93;;;3.52;65.45
77537;BME280;67783;51.656;16.106;2023-03-03T09:39:35;102371.44;;;3.52;65.62
77537;BME280;67783;51.656;16.106;2023-03-03T09:42:50;102365.23;;;3.53;66.05
77537;BME280;67783;51.656;16.106;2023-03-03T09:55:39;102371.86;;;3.79;65.29
77537;BME280;67783;51.656;16.106;2023-03-03T10:02:08;102370.07;;;3.81;65.33
77537;BME280;67783;51.656;16.106;2023-03-03T10:05:25;102376.14;;;3.86;65.19
77537;BME280;67783;51.656;16.106;2023-03-03T10:08:38;102363.66;;;3.92;65.22
77537;BME280;67783;51.656;16.106;2023-03-03T10:11:53;102361.90;;;3.91;65.32
77537;BME280;67783;51.656;16.106;2023-03-03T10:25:01;102351.29;;;3.91;65.51
77537;BME280;67783;51.656;16.106;2023-03-03T10:31:40;102346.69;;;4.01;65.41
77537;BME280;67783;51.656;16.106;2023-03-03T10:41:32;102358.99;;;4.05;65.36
77537;BME280;67783;51.656;16.106;2023-03-03T11:20:30;102328.84;;;4.50;64.52
77537;BME280;67783;51.656;16.106;2023-03-03T11:33:33;102332.14;;;4.60;64.71
77537;BME280;67783;51.656;16.106;2023-03-03T11:36:40;102325.99;;;4.59;64.38
77537;BME280;67783;51.656;16.106;2023-03-03T11:39:44;102323.45;;;4.53;64.32
77537;BME280;67783;51.656;16.106;2023-03-03T11:43:00;102318.12;;;4.55;64.46
77537;BME280;67783;51.656;16.106;2023-03-03T11:46:12;102314.70;;;4.48;64.47
77537;BME280;67783;51.656;16.106;2023-03-03T11:49:32;102305.82;;;4.51;64.52
77537;BME280;67783;51.656;16.106;2023-03-03T11:55:41;102293.45;;;4.50;64.43
77537;BME280;67783;51.656;16.106;2023-03-03T11:59:36;102312.73;;;4.58;64.32
77537;BME280;67783;51.656;16.106;2023-03-03T12:02:01;102310.09;;;4.56;64.39
77537;BME280;67783;51.656;16.106;2023-03-03T12:05:14;102314.53;;;4.56;64.43
77537;BME280;67783;51.656;16.106;2023-03-03T12:08:28;102310.09;;;4.56;64.32
77537;BME280;67783;51.656;16.106;2023-03-03T12:18:04;102315.41;;;4.56;64.38
77537;BME280;67783;51.656;16.106;2023-03-03T12:24:30;102310.09;;;4.56;64.35
77537;BME280;67783;51.656;16.106;2023-03-03T12:34:10;102300.50;;;4.51;64.44
77537;BME280;67783;51.656;16.106;2023-03-03T12:37:22;102293.62;;;4.42;64.48
77537;BME280;67783;51.656;16.106;2023-03-03T12:40:35;102292.44;;;4.55;64.54
77537;BME280;67783;51.656;16.106;2023-03-03T12:43:51;102287.17;;;4.52;64.71
77537;BME280;67783;51.656;16.106;2023-03-03T12:46:58;102280.12;;;4.51;64.52
77537;BME280;67783;51.656;16.106;2023-03-03T12:56:37;102272.12;;;4.53;64.49
77537;BME280;67783;51.656;16.106;2023-03-03T13:06:15;102278.88;;;4.68;64.53
77537;BME280;67783;51.656;16.106;2023-03-03T13:09:30;102269.93;;;4.72;64.54
77537;BME280;67783;51.656;16.106;2023-03-03T13:16:13;102278.63;;;4.77;64.51
77537;BME280;67783;51.656;16.106;2023-03-03T13:19:24;102267.95;;;4.80;64.33
77537;BME280;67783;51.656;16.106;2023-03-03T13:25:49;102255.55;;;4.80;64.26
77537;BME280;67783;51.656;16.106;2023-03-03T13:29:12;102259.93;;;4.81;64.25
77537;BME280;67783;51.656;16.106;2023-03-03T13:32:22;102254.59;;;4.83;64.23
77537;BME280;67783;51.656;16.106;2023-03-03T13:38:47;102256.34;;;4.84;64.32
77537;BME280;67783;51.656;16.106;2023-03-03T13:41:59;102257.16;;;4.86;64.33
77537;BME280;67783;51.656;16.106;2023-03-03T13:48:30;102251.09;;;4.81;64.60
77537;BME280;67783;51.656;16.106;2023-03-03T13:55:03;102245.85;;;4.78;64.30
77537;BME280;67783;51.656;16.106;2023-03-03T13:58:17;102246.02;;;4.72;64.49
77537;BME280;67783;51.656;16.106;2023-03-03T14:04:53;102251.38;;;4.69;64.80
77537;BME280;67783;51.656;16.106;2023-03-03T14:08:01;102255.79;;;4.70;64.57
77537;BME280;67783;51.656;16.106;2023-03-03T14:17:54;102247.81;;;4.70;64.49
77537;BME280;67783;51.656;16.106;2023-03-03T14:24:18;102254.13;;;4.64;64.58
77537;BME280;67783;51.656;16.106;2023-03-03T14:27:26;102245.27;;;4.65;64.76
77537;BME280;67783;51.656;16.106;2023-03-03T14:30:35;102241.63;;;4.69;64.54
77537;BME280;67783;51.656;16.106;2023-03-03T14:33:38;102237.29;;;4.67;64.61
77537;BME280;67783;51.656;16.106;2023-03-03T14:36:43;102231.22;;;4.60;64.91
77537;BME280;67783;51.656;16.106;2023-03-03T14:42:59;102218.13;;;4.52;64.79
77537;BME280;67783;51.656;16.106;2023-03-03T14:49:30;102216.38;;;4.51;64.83
77537;BME280;67783;51.656;16.106;2023-03-03T14:52:40;102211.15;;;4.48;64.99
77537;BME280;67783;51.656;16.106;2023-03-03T14:55:42;102204.09;;;4.47;65.69
77537;BME280;67783;51.656;16.106;2023-03-03T14:58:46;102206.61;;;4.53;65.08
77537;BME280;67783;51.656;16.106;2023-03-03T15:05:22;102219.12;;;4.48;65.70
77537;BME280;67783;51.656;16.106;2023-03-03T15:08:30;102211.06;;;4.51;65.16
77537;BME280;67783;51.656;16.106;2023-03-03T15:11:33;102203.08;;;4.53;65.39
77537;BME280;67783;51.656;16.106;2023-03-03T15:14:43;102206.61;;;4.53;65.87
77537;BME280;67783;51.656;16.106;2023-03-03T15:17:58;102209.34;;;4.50;65.26
77537;BME280;67783;51.656;16.106;2023-03-03T15:21:17;102211.30;;;4.42;65.44
77537;BME280;67783;51.656;16.106;2023-03-03T15:24:39;102216.67;;;4.39;65.53
77537;BME280;67783;51.656;16.106;2023-03-03T15:27:52;102211.43;;;4.36;66.01
77537;BME280;67783;51.656;16.106;2023-03-03T15:37:32;102197.48;;;4.27;65.86
77537;BME280;67783;51.656;16.106;2023-03-03T15:40:59;102201.19;;;4.21;66.54
77537;BME280;67783;51.656;16.106;2023-03-03T15:47:31;102188.83;;;4.18;65.80
77537;BME280;67783;51.656;16.106;2023-03-03T15:57:20;102196.59;;;4.28;65.83
77537;BME280;67783;51.656;16.106;2023-03-03T16:03:39;102182.40;;;4.30;66.14
77537;BME280;67783;51.656;16.106;2023-03-03T16:10:18;102176.92;;;4.36;65.59
77537;BME280;67783;51.656;16.106;2023-03-03T16:29:56;102184.46;;;4.17;66.21
77537;BME280;67783;51.656;16.106;2023-03-03T16:39:28;102204.81;;;4.17;66.07
77537;BME280;67783;51.656;16.106;2023-03-03T16:42:42;102202.28;;;4.11;66.58
77537;BME280;67783;51.656;16.106;2023-03-03T16:45:45;102197.85;;;4.11;65.95
77537;BME280;67783;51.656;16.106;2023-03-03T16:52:14;102201.58;;;4.03;66.84
77537;BME280;67783;51.656;16.106;2023-03-03T16:55:24;102199.80;;;4.03;66.04
77537;BME280;67783;51.656;16.106;2023-03-03T17:05:23;102201.73;;;3.97;67.24
77537;BME280;67783;51.656;16.106;2023-03-03T17:34:31;102198.37;;;3.89;66.65
77537;BME280;67783;51.656;16.106;2023-03-03T17:41:05;102196.59;;;3.89;67.47
77537;BME280;67783;51.656;16.106;2023-03-03T17:44:18;102190.41;;;3.89;66.53
77537;BME280;67783;51.656;16.106;2023-03-03T17:57:25;102186.12;;;3.82;66.70
77537;BME280;67783;51.656;16.106;2023-03-03T18:00:42;102193.18;;;3.83;66.83
77537;BME280;67783;51.656;16.106;2023-03-03T18:10:33;102196.70;;;3.85;66.83
77537;BME280;67783;51.656;16.106;2023-03-03T18:13:49;102194.04;;;3.85;66.94
77537;BME280;67783;51.656;16.106;2023-03-03T18:26:42;102193.06;;;3.89;66.93
77537;BME280;67783;51.656;16.106;2023-03-03T18:33:10;102187.68;;;3.92;66.77
77537;BME280;67783;51.656;16.106;2023-03-03T18:39:36;102193.96;;;3.88;67.25
77537;BME280;67783;51.656;16.106;2023-03-03T18:42:40;102194.87;;;3.87;66.83
77537;BME280;67783;51.656;16.106;2023-03-03T18:45:48;102199.37;;;3.83;66.97
77537;BME280;67783;51.656;16.106;2023-03-03T18:49:03;102199.38;;;3.82;67.86
77537;BME280;67783;51.656;16.106;2023-03-03T18:55:20;102188.77;;;3.82;67.00
77537;BME280;67783;51.656;16.106;2023-03-03T19:01:43;102191.42;;;3.82;67.12
77537;BME280;67783;51.656;16.106;2023-03-03T19:04:52;102188.75;;;3.83;67.22
77537;BME280;67783;51.656;16.106;2023-03-03T19:08:15;102193.18;;;3.83;67.91
77537;BME280;67783;51.656;16.106;2023-03-03T19:14:30;102186.98;;;3.84;67.11
77537;BME280;67783;51.656;16.106;2023-03-03T19:17:43;102194.16;;;3.79;67.98
77537;BME280;67783;51.656;16.106;2023-03-03T19:20:55;102192.40;;;3.78;67.19
77537;BME280;67783;51.656;16.106;2023-03-03T19:30:46;102186.38;;;3.69;68.18
77537;BME280;67783;51.656;16.106;2023-03-03T19:37:15;102184.77;;;3.62;67.58
77537;BME280;67783;51.656;16.106;2023-03-03T19:43:52;102181.33;;;3.57;68.64
77537;BME280;67783;51.656;16.106;2023-03-03T19:47:09;102172.41;;;3.61;67.55
77537;BME280;67783;51.656;16.106;2023-03-03T19:50:22;102176.89;;;3.59;67.79
77537;BME280;67783;51.656;16.106;2023-03-03T19:56:53;102188.39;;;3.58;68.86
77537;BME280;67783;51.656;16.106;2023-03-03T20:00:06;102192.80;;;3.59;67.82
77537;BME280;67783;51.656;16.106;2023-03-03T20:09:48;102172.34;;;3.64;67.76
77537;BME280;67783;51.656;16.106;2023-03-03T20:16:19;102163.56;;;3.62;68.29
77537;BME280;67783;51.656;16.106;2023-03-03T20:19:42;102156.51;;;3.61;68.61
77537;BME280;67783;51.656;16.106;2023-03-03T20:42:29;102158.18;;;3.65;68.56
77537;BME280;67783;51.656;16.106;2023-03-03T20:45:55;102151.91;;;3.69;68.61
77537;BME280;67783;51.656;16.106;2023-03-03T20:49:10;102152.71;;;3.73;67.91
77537;BME280;67783;51.656;16.106;2023-03-03T20:55:36;102147.38;;;3.75;68.43
77537;BME280;67783;51.656;16.106;2023-03-03T21:05:16;102138.53;;;3.76;68.39
77537;BME280;67783;51.656;16.106;2023-03-03T21:08:39;102133.23;;;3.76;68.83
77537;BME280;67783;51.656;16.106;2023-03-03T21:11:43;102124.39;;;3.75;68.23
77537;BME280;67783;51.656;16.106;2023-03-03T21:17:58;102114.61;;;3.77;69.21
77537;BME280;67783;51.656;16.106;2023-03-03T21:21:01;102104.92;;;3.76;68.50
77537;BME280;67783;51.656;16.106;2023-03-03T21:24:04;102100.51;;;3.77;68.59
77537;BME280;67783;51.656;16.106;2023-03-03T21:30:19;102103.90;;;3.82;68.17
77537;BME280;67783;51.656;16.106;2023-03-03T21:36:43;102101.24;;;3.82;68.10
77537;BME280;67783;51.656;16.106;2023-03-03T21:39:46;102102.92;;;3.86;68.21
77537;BME280;67783;51.656;16.106;2023-03-03T21:42:54;102099.29;;;3.90;68.79
77537;BME280;67783;51.656;16.106;2023-03-03T21:45:57;102087.76;;;3.92;68.04
77537;BME280;67783;51.656;16.106;2023-03-03T21:48:59;102075.37;;;3.93;68.26
77537;BME280;67783;51.656;16.106;2023-03-03T21:52:02;102083.22;;;3.97;67.85
77537;BME280;67783;51.656;16.106;2023-03-03T21:55:05;102071.75;;;3.95;67.97
77537;BME280;67783;51.656;16.106;2023-03-03T21:58:11;102050.03;;;3.80;68.61
77537;BME280;67783;51.656;16.106;2023-03-03T22:01:13;102065.46;;;3.99;67.79
77537;BME280;67783;51.656;16.106;2023-03-03T22:04:15;102058.47;;;3.97;68.28
77537;BME280;67783;51.656;16.106;2023-03-03T22:07:17;102051.33;;;3.99;67.82
77537;BME280;67783;51.656;16.106;2023-03-03T22:10:19;102044.21;;;4.01;67.90
77537;BME280;67783;51.656;16.106;2023-03-03T22:13:22;102035.32;;;4.02;67.77
77537;BME280;67783;51.656;16.106;2023-03-03T22:16:25;102034.48;;;4.01;67.92
77537;BME280;67783;51.656;16.106;2023-03-03T22:19:29;102026.44;;;4.04;68.40